createdAt,value
2017-04-22T00:00:46.285Z,23.8
2017-04-22T00:01:46.402Z,23.8
2017-04-22T00:02:45.311Z,23.8
2017-04-22T00:03:46.458Z,23.8
2017-04-22T00:04:45.474Z,23.8
2017-04-22T00:05:45.551Z,23.8
2017-04-22T00:06:45.630Z,23.8
2017-04-22T00:07:45.540Z,23.8
2017-04-22T00:08:45.709Z,23.8
2017-04-22T00:09:45.616Z,23.8
2017-04-22T00:10:45.717Z,23.8
2017-04-22T00:11:46.851Z,23.8
2017-04-22T00:12:45.876Z,23.8
2017-04-22T00:13:46.895Z,23.8
2017-04-22T00:14:45.991Z,23.8
2017-04-22T00:15:46.995Z,23.8
2017-04-22T00:16:46.005Z,23.8
2017-04-22T00:17:46.102Z,23.8
2017-04-22T00:18:47.151Z,23.8
2017-04-22T00:19:46.177Z,23.8
2017-04-22T00:20:46.258Z,23.8
2017-04-22T00:21:47.232Z,23.8
2017-04-22T00:22:46.186Z,23.8
2017-04-22T00:23:46.328Z,23.8
2017-04-22T00:24:46.363Z,23.8
2017-04-22T00:25:47.451Z,23.8
2017-04-22T00:26:47.444Z,23.8
2017-04-22T00:27:46.358Z,23.8
2017-04-22T00:28:46.511Z,23.8
2017-04-22T00:29:46.506Z,23.8
2017-04-22T00:30:47.642Z,23.8
2017-04-22T00:31:47.625Z,23.8
2017-04-22T00:32:47.715Z,23.8
2017-04-22T00:33:47.777Z,23.8
2017-04-22T00:34:46.812Z,23.8
2017-04-22T00:35:46.819Z,23.8
2017-04-22T00:36:46.875Z,23.8
2017-04-22T00:37:46.865Z,23.8
2017-04-22T00:38:48.066Z,23.9
2017-04-22T00:39:47.992Z,23.8
2017-04-22T00:40:46.962Z,23.8
2017-04-22T00:41:47.177Z,23.8
2017-04-22T00:42:47.204Z,23.8
2017-04-22T00:43:48.307Z,23.8
2017-04-22T00:44:47.391Z,23.8
2017-04-22T00:45:47.288Z,23.8
2017-04-22T00:46:48.487Z,23.8
2017-04-22T00:47:48.486Z,23.8
2017-04-22T00:48:47.490Z,23.8
2017-04-22T00:49:47.589Z,23.8
2017-04-22T00:50:48.647Z,23.9
2017-04-22T00:51:47.670Z,23.8
2017-04-22T00:52:47.776Z,23.9
2017-04-22T00:53:47.914Z,23.8
2017-04-22T00:54:48.941Z,23.9
2017-04-22T00:55:48.914Z,23.9
2017-04-22T00:56:47.845Z,23.9
2017-04-22T00:57:47.871Z,23.9
2017-04-22T00:58:49.046Z,23.9
2017-04-22T00:59:49.064Z,23.9
2017-04-22T01:00:47.998Z,23.9
2017-04-22T01:01:49.081Z,23.9
2017-04-22T01:02:48.150Z,23.9
2017-04-22T01:03:49.236Z,23.9
2017-04-22T01:04:48.230Z,23.9
2017-04-22T01:05:48.319Z,23.9
2017-04-22T01:06:49.489Z,23.9
2017-04-22T01:07:49.619Z,23.9
2017-04-22T01:08:48.552Z,23.9
2017-04-22T01:09:48.612Z,23.9
2017-04-22T01:10:48.738Z,23.9
2017-04-22T01:11:49.734Z,23.9
2017-04-22T01:12:49.850Z,23.9
2017-04-22T01:13:49.897Z,23.9
2017-04-22T01:14:48.821Z,23.9
2017-04-22T01:15:55.741Z,23.9
2017-04-22T01:16:50.008Z,23.9
2017-04-22T01:17:50.129Z,23.9
2017-04-22T01:18:48.988Z,23.9
2017-04-22T01:19:50.072Z,23.9
2017-04-22T01:20:49.110Z,23.9
2017-04-22T01:21:50.241Z,23.9
2017-04-22T01:22:49.111Z,23.9
2017-04-22T01:23:49.264Z,23.9
2017-04-22T01:24:49.245Z,23.9
2017-04-22T01:25:49.402Z,23.9
2017-04-22T01:26:50.410Z,23.9
2017-04-22T01:27:50.446Z,23.9
2017-04-22T01:28:49.427Z,23.9
2017-04-22T01:29:50.103Z,23.9
2017-04-22T01:30:49.611Z,23.9
2017-04-22T01:31:49.680Z,23.9
2017-04-22T01:32:49.621Z,23.9
2017-04-22T01:33:50.731Z,23.9
2017-04-22T01:34:49.714Z,23.9
2017-04-22T01:35:49.856Z,23.9
2017-04-22T01:36:49.949Z,23.9
2017-04-22T01:37:49.970Z,23.9
2017-04-22T01:38:51.018Z,23.9
2017-04-22T01:39:49.857Z,23.9
2017-04-22T01:40:49.934Z,23.9
2017-04-22T01:41:51.039Z,23.9
2017-04-22T01:42:51.079Z,23.9
2017-04-22T01:43:51.115Z,23.9
2017-04-22T01:44:50.138Z,23.9
2017-04-22T01:45:51.261Z,23.9
2017-04-22T01:46:50.968Z,23.9
2017-04-22T01:47:51.446Z,23.9
2017-04-22T01:48:50.486Z,23.9
2017-04-22T01:49:51.555Z,23.9
2017-04-22T01:50:51.582Z,23.9
2017-04-22T01:51:51.683Z,23.9
2017-04-22T01:52:51.715Z,23.9
2017-04-22T01:53:51.800Z,23.9
2017-04-22T01:54:51.910Z,23.9
2017-04-22T01:55:51.932Z,23.9
2017-04-22T01:56:51.860Z,23.9
2017-04-22T01:57:51.893Z,23.9
2017-04-22T01:58:52.038Z,23.9
2017-04-22T01:59:52.099Z,23.9
2017-04-22T02:00:51.163Z,23.9
2017-04-22T02:01:51.083Z,23.9
2017-04-22T02:02:52.320Z,23.9
2017-04-22T02:03:51.337Z,23.9
2017-04-22T02:04:51.368Z,23.9
2017-04-22T02:05:52.339Z,23.9
2017-04-22T02:06:52.442Z,23.9
2017-04-22T02:07:51.331Z,23.9
2017-04-22T02:08:52.424Z,23.9
2017-04-22T02:09:51.602Z,23.9
2017-04-22T02:10:52.536Z,23.9
2017-04-22T02:11:51.583Z,23.9
2017-04-22T02:12:51.492Z,23.9
2017-04-22T02:13:52.661Z,23.9
2017-04-22T02:14:51.600Z,23.9
2017-04-22T02:15:52.763Z,23.9
2017-04-22T02:16:51.708Z,23.9
2017-04-22T02:17:51.749Z,23.9
2017-04-22T02:18:52.940Z,23.9
2017-04-22T02:19:52.924Z,23.9
2017-04-22T02:20:52.979Z,23.9
2017-04-22T02:21:52.082Z,23.9
2017-04-22T02:22:51.943Z,23.9
2017-04-22T02:23:52.009Z,23.9
2017-04-22T02:24:53.096Z,23.9
2017-04-22T02:25:52.124Z,23.8
2017-04-22T02:26:53.321Z,23.8
2017-04-22T02:27:52.280Z,23.8
2017-04-22T02:28:53.259Z,23.8
2017-04-22T02:29:52.288Z,23.8
2017-04-22T02:30:53.340Z,23.8
2017-04-22T02:31:53.412Z,23.8
2017-04-22T02:32:53.457Z,23.8
2017-04-22T02:33:52.439Z,23.8
2017-04-22T02:34:52.503Z,23.8
2017-04-22T02:35:52.669Z,23.8
2017-04-22T02:36:52.593Z,23.8
2017-04-22T02:37:53.151Z,23.8
2017-04-22T02:38:53.697Z,23.8
2017-04-22T02:39:52.787Z,23.8
2017-04-22T02:40:53.780Z,23.9
2017-04-22T02:41:52.809Z,23.8
2017-04-22T02:42:53.943Z,23.8
2017-04-22T02:43:54.060Z,23.8
2017-04-22T02:44:52.901Z,23.8
2017-04-22T02:45:53.616Z,23.8
2017-04-22T02:46:54.084Z,23.8
2017-04-22T02:47:53.248Z,23.8
2017-04-22T02:48:53.142Z,23.8
2017-04-22T02:49:53.136Z,23.8
2017-04-22T02:50:53.230Z,23.8
2017-04-22T02:51:53.286Z,23.8
2017-04-22T02:52:53.247Z,23.8
2017-04-22T02:53:53.264Z,23.8
2017-04-22T02:54:54.473Z,23.7
2017-04-22T02:55:53.411Z,23.7
2017-04-22T02:56:53.600Z,23.7
2017-04-22T02:57:55.230Z,23.7
2017-04-22T02:58:54.600Z,23.7
2017-04-22T02:59:53.650Z,23.7
2017-04-22T03:00:54.752Z,23.7
2017-04-22T03:01:53.638Z,23.7
2017-04-22T03:02:53.673Z,23.7
2017-04-22T03:03:54.881Z,23.7
2017-04-22T03:04:53.832Z,23.7
2017-04-22T03:05:53.902Z,23.7
2017-04-22T03:06:53.954Z,23.7
2017-04-22T03:07:54.059Z,23.7
2017-04-22T03:08:55.073Z,23.7
2017-04-22T03:09:55.164Z,23.7
2017-04-22T03:10:55.172Z,23.7
2017-04-22T03:11:54.243Z,23.7
2017-04-22T03:12:55.227Z,23.7
2017-04-22T03:13:55.381Z,23.7
2017-04-22T03:14:55.322Z,23.7
2017-04-22T03:15:54.265Z,23.7
2017-04-22T03:16:54.998Z,23.7
2017-04-22T03:17:55.470Z,23.7
2017-04-22T03:18:54.578Z,23.7
2017-04-22T03:19:55.571Z,23.7
2017-04-22T03:20:57.727Z,23.7
2017-04-22T03:21:55.680Z,23.7
2017-04-22T03:22:55.775Z,23.7
2017-04-22T03:23:54.779Z,23.7
2017-04-22T03:24:55.844Z,23.7
2017-04-22T03:25:55.921Z,23.7
2017-04-22T03:26:54.918Z,23.7
2017-04-22T03:27:54.946Z,23.7
2017-04-22T03:28:54.984Z,23.7
2017-04-22T03:29:54.928Z,23.7
2017-04-22T03:30:56.096Z,23.7
2017-04-22T03:31:56.185Z,23.7
2017-04-22T03:32:56.254Z,23.7
2017-04-22T03:33:56.259Z,23.7
2017-04-22T03:34:56.347Z,23.7
2017-04-22T03:35:55.369Z,23.7
2017-04-22T03:36:55.486Z,23.7
2017-04-22T03:37:56.533Z,23.7
2017-04-22T03:38:55.489Z,23.7
2017-04-22T03:39:55.486Z,23.7
2017-04-22T03:40:55.572Z,23.8
2017-04-22T03:41:56.716Z,23.8
2017-04-22T03:42:56.802Z,23.8
2017-04-22T03:43:56.875Z,23.8
2017-04-22T03:44:56.952Z,23.8
2017-04-22T03:45:55.777Z,23.8
2017-04-22T03:46:55.792Z,23.8
2017-04-22T03:47:57.593Z,23.8
2017-04-22T03:48:56.991Z,23.8
2017-04-22T03:49:57.054Z,23.8
2017-04-22T03:50:56.022Z,23.8
2017-04-22T03:51:56.120Z,23.8
2017-04-22T03:52:56.233Z,23.8
2017-04-22T03:53:56.328Z,23.8
2017-04-22T03:54:56.317Z,23.8
2017-04-22T03:55:57.433Z,23.8
2017-04-22T03:56:57.492Z,23.8
2017-04-22T03:57:57.567Z,23.8
2017-04-22T03:58:57.739Z,23.8
2017-04-22T03:59:57.162Z,23.8
2017-04-22T04:00:57.803Z,23.8
2017-04-22T04:01:56.710Z,23.8
2017-04-22T04:02:57.859Z,23.8
2017-04-22T04:03:56.889Z,23.8
2017-04-22T04:04:57.876Z,23.8
2017-04-22T04:05:56.838Z,23.8
2017-04-22T04:06:56.995Z,23.8
2017-04-22T04:07:58.088Z,23.8
2017-04-22T04:08:57.580Z,23.8
2017-04-22T04:09:56.954Z,23.8
2017-04-22T04:10:57.062Z,23.8
2017-04-22T04:11:58.196Z,23.8
2017-04-22T04:12:57.046Z,23.8
2017-04-22T04:13:57.162Z,23.8
2017-04-22T04:14:58.154Z,23.8
2017-04-22T04:15:57.154Z,23.8
2017-04-22T04:16:57.249Z,23.8
2017-04-22T04:17:58.394Z,23.8
2017-04-22T04:18:57.411Z,23.8
2017-04-22T04:19:57.409Z,23.9
2017-04-22T04:20:58.385Z,23.9
2017-04-22T04:21:57.413Z,23.9
2017-04-22T04:22:57.478Z,23.9
2017-04-22T04:23:58.658Z,23.9
2017-04-22T04:24:57.626Z,23.9
2017-04-22T04:25:57.725Z,23.9
2017-04-22T04:26:58.851Z,23.9
2017-04-22T04:27:58.927Z,23.9
2017-04-22T04:28:57.869Z,23.9
2017-04-22T04:29:58.940Z,23.9
2017-04-22T04:30:57.983Z,23.9
2017-04-22T04:31:57.976Z,23.9
2017-04-22T04:32:58.004Z,23.8
2017-04-22T04:33:59.106Z,23.9
2017-04-22T04:34:58.141Z,23.9
2017-04-22T04:35:59.158Z,23.9
2017-04-22T04:36:58.269Z,23.9
2017-04-22T04:37:58.379Z,23.9
2017-04-22T04:38:58.375Z,23.9
2017-04-22T04:39:59.481Z,23.9
2017-04-22T04:40:58.398Z,23.9
2017-04-22T04:41:58.502Z,23.9
2017-04-22T04:42:58.601Z,23.9
2017-04-22T04:43:58.791Z,23.9
2017-04-22T04:44:59.915Z,23.8
2017-04-22T04:45:58.930Z,23.8
2017-04-22T04:46:58.969Z,23.9
2017-04-22T04:47:59.075Z,23.9
2017-04-22T04:48:59.031Z,23.9
2017-04-22T04:50:00.187Z,23.9
2017-04-22T04:51:00.311Z,23.9
2017-04-22T04:52:01.225Z,23.9
2017-04-22T04:52:59.298Z,23.9
2017-04-22T04:53:59.334Z,23.9
2017-04-22T04:55:00.469Z,23.9
2017-04-22T04:56:00.537Z,23.9
2017-04-22T04:57:00.669Z,23.9
2017-04-22T04:58:00.607Z,23.9
2017-04-22T04:58:59.616Z,23.9
2017-04-22T05:00:00.762Z,23.9
2017-04-22T05:01:00.785Z,23.9
2017-04-22T05:01:59.832Z,23.9
2017-04-22T05:03:00.964Z,23.9
2017-04-22T05:03:59.976Z,23.9
2017-04-22T05:05:01.108Z,23.9
2017-04-22T05:06:00.010Z,23.9
2017-04-22T05:07:00.106Z,23.9
2017-04-22T05:08:01.172Z,23.9
2017-04-22T05:09:00.103Z,23.9
2017-04-22T05:10:00.275Z,23.9
2017-04-22T05:11:01.346Z,23.9
2017-04-22T05:12:01.375Z,23.9
2017-04-22T05:13:00.341Z,23.9
2017-04-22T05:14:01.589Z,23.9
2017-04-22T05:15:01.645Z,23.9
2017-04-22T05:16:00.542Z,23.9
2017-04-22T05:17:01.758Z,23.9
2017-04-22T05:18:01.805Z,23.9
2017-04-22T05:19:00.711Z,23.9
2017-04-22T05:20:00.735Z,23.9
2017-04-22T05:21:01.941Z,23.9
2017-04-22T05:22:00.959Z,23.9
2017-04-22T05:23:01.939Z,23.9
2017-04-22T05:24:00.907Z,23.9
2017-04-22T05:25:01.021Z,23.9
2017-04-22T05:26:02.074Z,23.9
2017-04-22T05:27:01.128Z,23.9
2017-04-22T05:28:01.032Z,23.9
2017-04-22T05:29:02.206Z,23.9
2017-04-22T05:30:02.218Z,23.8
2017-04-22T05:31:02.245Z,23.9
2017-04-22T05:32:02.312Z,23.8
2017-04-22T05:33:01.202Z,23.8
2017-04-22T05:34:02.409Z,23.8
2017-04-22T05:35:01.316Z,23.8
2017-04-22T05:36:02.530Z,23.9
2017-04-22T05:37:02.617Z,23.9
2017-04-22T05:38:01.540Z,23.9
2017-04-22T05:39:02.711Z,23.9
2017-04-22T05:40:02.738Z,23.9
2017-04-22T05:41:01.733Z,23.9
2017-04-22T05:42:01.823Z,23.9
2017-04-22T05:43:02.888Z,23.9
2017-04-22T05:44:03.003Z,23.9
2017-04-22T05:45:01.898Z,23.9
2017-04-22T05:46:02.092Z,23.9
2017-04-22T05:47:03.228Z,23.8
2017-04-22T05:48:03.222Z,23.8
2017-04-22T05:49:03.187Z,23.8
2017-04-22T05:50:03.214Z,23.8
2017-04-22T05:51:03.375Z,23.8
2017-04-22T05:52:02.278Z,23.8
2017-04-22T05:53:03.428Z,23.8
2017-04-22T05:54:03.526Z,23.8
2017-04-22T05:55:03.893Z,23.8
2017-04-22T05:56:02.600Z,23.8
2017-04-22T05:57:03.629Z,23.8
2017-04-22T05:58:02.686Z,23.8
2017-04-22T05:59:03.658Z,23.8
2017-04-22T06:00:02.699Z,23.8
2017-04-22T06:01:03.033Z,23.8
2017-04-22T06:02:03.820Z,23.8
2017-04-22T06:03:03.792Z,23.8
2017-04-22T06:04:02.872Z,23.8
2017-04-22T06:05:04.005Z,23.8
2017-04-22T06:06:03.948Z,23.8
2017-04-22T06:07:03.348Z,23.8
2017-04-22T06:08:04.180Z,23.8
2017-04-22T06:09:04.224Z,23.8
2017-04-22T06:10:04.238Z,23.8
2017-04-22T06:11:04.308Z,23.8
2017-04-22T06:12:03.304Z,23.8
2017-04-22T06:13:07.304Z,23.8
2017-04-22T06:14:09.380Z,23.8
2017-04-22T06:15:03.537Z,23.8
2017-04-22T06:16:03.435Z,23.8
2017-04-22T06:17:03.645Z,23.8
2017-04-22T06:18:04.685Z,23.8
2017-04-22T06:19:03.998Z,23.8
2017-04-22T06:20:04.737Z,23.8
2017-04-22T06:21:04.911Z,23.8
2017-04-22T06:22:03.813Z,23.7
2017-04-22T06:23:03.808Z,23.8
2017-04-22T06:24:05.041Z,23.7
2017-04-22T06:25:05.354Z,23.7
2017-04-22T06:26:04.091Z,23.7
2017-04-22T06:27:04.098Z,23.7
2017-04-22T06:28:04.294Z,23.7
2017-04-22T06:29:04.342Z,23.7
2017-04-22T06:30:04.454Z,23.7
2017-04-22T06:31:04.844Z,23.7
2017-04-22T06:32:05.588Z,23.6
2017-04-22T06:33:05.704Z,23.6
2017-04-22T06:34:05.696Z,23.6
2017-04-22T06:35:04.631Z,23.6
2017-04-22T06:36:05.694Z,23.6
2017-04-22T06:37:05.016Z,23.6
2017-04-22T06:38:05.951Z,23.6
2017-04-22T06:39:04.943Z,23.6
2017-04-22T06:40:04.911Z,23.6
2017-04-22T06:41:06.064Z,23.6
2017-04-22T06:42:05.033Z,23.6
2017-04-22T06:43:05.328Z,23.6
2017-04-22T06:44:05.211Z,23.6
2017-04-22T06:45:06.268Z,23.5
2017-04-22T06:46:05.300Z,23.5
2017-04-22T06:47:05.381Z,23.5
2017-04-22T06:48:06.487Z,23.5
2017-04-22T06:49:05.829Z,23.5
2017-04-22T06:50:06.575Z,23.5
2017-04-22T06:51:06.645Z,23.6
2017-04-22T06:52:05.551Z,23.5
2017-04-22T06:53:05.743Z,23.6
2017-04-22T06:54:05.723Z,23.6
2017-04-22T06:55:07.203Z,23.5
2017-04-22T06:56:05.837Z,23.5
2017-04-22T06:57:06.884Z,23.5
2017-04-22T06:58:05.868Z,23.5
2017-04-22T06:59:07.040Z,23.5
2017-04-22T07:00:06.097Z,23.5
2017-04-22T07:01:07.455Z,23.4
2017-04-22T07:02:06.062Z,23.4
2017-04-22T07:03:06.091Z,23.4
2017-04-22T07:04:06.200Z,23.3
2017-04-22T07:05:06.173Z,23.3
2017-04-22T07:06:06.291Z,23.3
2017-04-22T07:07:07.674Z,23.3
2017-04-22T07:08:06.473Z,23.2
2017-04-22T07:09:06.396Z,23.2
2017-04-22T07:10:06.425Z,23.2
2017-04-22T07:11:06.608Z,23.2
2017-04-22T07:12:07.661Z,23.2
2017-04-22T07:13:06.977Z,23.1
2017-04-22T07:14:07.801Z,23.1
2017-04-22T07:15:07.851Z,23.1
2017-04-22T07:16:06.856Z,23.1
2017-04-22T07:17:06.974Z,23.1
2017-04-22T07:18:06.990Z,23.1
2017-04-22T07:19:07.314Z,23.1
2017-04-22T07:20:08.077Z,23.1
2017-04-22T07:21:08.097Z,23
2017-04-22T07:22:07.028Z,23
2017-04-22T07:23:08.268Z,23
2017-04-22T07:24:08.266Z,23
2017-04-22T07:25:08.553Z,23
2017-04-22T07:26:08.268Z,23
2017-04-22T07:27:07.320Z,23
2017-04-22T07:28:08.421Z,23
2017-04-22T07:29:07.543Z,23
2017-04-22T07:30:08.588Z,23
2017-04-22T07:31:07.831Z,23
2017-04-22T07:32:08.601Z,23
2017-04-22T07:33:08.709Z,23
2017-04-22T07:34:08.766Z,23
2017-04-22T07:35:08.760Z,23
2017-04-22T07:36:07.857Z,22.9
2017-04-22T07:37:08.019Z,22.9
2017-04-22T07:38:07.724Z,22.9
2017-04-22T07:39:07.921Z,22.9
2017-04-22T07:40:07.915Z,22.9
2017-04-22T07:41:09.785Z,22.9
2017-04-22T07:42:08.001Z,22.9
2017-04-22T07:43:08.483Z,22.9
2017-04-22T07:44:08.111Z,23
2017-04-22T07:45:08.156Z,22.9
2017-04-22T07:46:09.323Z,22.9
2017-04-22T07:47:09.447Z,22.9
2017-04-22T07:48:08.342Z,22.8
2017-04-22T07:49:08.686Z,22.7
2017-04-22T07:50:09.377Z,22.7
2017-04-22T07:51:08.490Z,22.7
2017-04-22T07:52:09.536Z,22.8
2017-04-22T07:53:09.566Z,22.8
2017-04-22T07:54:09.654Z,22.8
2017-04-22T07:55:09.914Z,22.9
2017-04-22T07:56:09.751Z,22.9
2017-04-22T07:57:08.708Z,22.9
2017-04-22T07:58:09.869Z,22.9
2017-04-22T07:59:10.027Z,23
2017-04-22T08:00:10.012Z,23
2017-04-22T08:01:10.368Z,23
2017-04-22T08:02:09.037Z,23
2017-04-22T08:03:10.137Z,23
2017-04-22T08:04:10.250Z,23.1
2017-04-22T08:05:09.150Z,23.1
2017-04-22T08:06:10.392Z,23.1
2017-04-22T08:07:09.582Z,23.1
2017-04-22T08:08:10.456Z,23.1
2017-04-22T08:09:10.571Z,23.1
2017-04-22T08:10:09.585Z,23.1
2017-04-22T08:11:09.561Z,23.1
2017-04-22T08:12:09.709Z,23.1
2017-04-22T08:13:11.140Z,23.1
2017-04-22T08:14:09.850Z,23
2017-04-22T08:15:10.934Z,23
2017-04-22T08:16:09.851Z,23
2017-04-22T08:17:09.936Z,23
2017-04-22T08:18:11.124Z,22.9
2017-04-22T08:19:10.484Z,22.8
2017-04-22T08:20:11.235Z,22.7
2017-04-22T08:21:10.202Z,22.7
2017-04-22T08:22:11.428Z,22.7
2017-04-22T08:23:10.468Z,22.7
2017-04-22T08:24:11.527Z,22.7
2017-04-22T08:25:11.877Z,22.7
2017-04-22T08:26:10.502Z,22.7
2017-04-22T08:27:11.668Z,22.7
2017-04-22T08:28:11.771Z,22.7
2017-04-22T08:29:10.775Z,22.7
2017-04-22T08:30:11.971Z,22.8
2017-04-22T08:31:12.165Z,22.8
2017-04-22T08:32:11.977Z,22.8
2017-04-22T08:33:10.818Z,22.9
2017-04-22T08:34:11.909Z,22.9
2017-04-22T08:35:10.959Z,22.9
2017-04-22T08:36:12.019Z,22.9
2017-04-22T08:37:12.372Z,22.9
2017-04-22T08:38:12.126Z,22.9
2017-04-22T08:39:12.220Z,22.9
2017-04-22T08:40:12.223Z,22.9
2017-04-22T08:41:11.060Z,22.9
2017-04-22T08:42:11.173Z,22.8
2017-04-22T08:43:12.516Z,22.7
2017-04-22T08:44:12.316Z,22.6
2017-04-22T08:45:12.299Z,22.6
2017-04-22T08:46:11.404Z,22.3
2017-04-22T08:47:12.474Z,22.2
2017-04-22T08:48:12.494Z,22.1
2017-04-22T08:49:11.807Z,21.8
2017-04-22T08:50:11.565Z,21.6
2017-04-22T08:51:11.662Z,21.3
2017-04-22T08:52:12.712Z,21.1
2017-04-22T08:53:11.809Z,20.9
2017-04-22T08:54:12.878Z,20.7
2017-04-22T08:55:13.220Z,20.5
2017-04-22T08:56:12.917Z,20.3
2017-04-22T08:57:12.924Z,20.1
2017-04-22T08:58:12.946Z,19.9
2017-04-22T08:59:11.899Z,19.8
2017-04-22T09:00:11.929Z,19.6
2017-04-22T09:01:13.293Z,19.5
2017-04-22T09:02:13.011Z,19.4
2017-04-22T09:03:12.015Z,19.6
2017-04-22T09:04:12.130Z,19.8
2017-04-22T09:05:13.134Z,20
2017-04-22T09:06:12.080Z,20.2
2017-04-22T09:07:12.373Z,20.1
2017-04-22T09:08:12.195Z,20
2017-04-22T09:09:13.384Z,20
2017-04-22T09:10:13.470Z,20.1
2017-04-22T09:11:12.471Z,20.3
2017-04-22T09:12:12.564Z,20.4
2017-04-22T09:13:13.934Z,20.6
2017-04-22T09:14:13.717Z,20.6
2017-04-22T09:15:13.776Z,20.7
2017-04-22T09:16:13.819Z,20.8
2017-04-22T09:17:12.784Z,20.9
2017-04-22T09:18:12.899Z,21
2017-04-22T09:19:14.221Z,21.1
2017-04-22T09:20:13.948Z,21.2
2017-04-22T09:21:12.851Z,21.2
2017-04-22T09:22:13.938Z,21.3
2017-04-22T09:23:13.973Z,21.4
2017-04-22T09:24:12.967Z,21.5
2017-04-22T09:25:14.355Z,21.5
2017-04-22T09:26:13.086Z,21.6
2017-04-22T09:27:13.186Z,21.6
2017-04-22T09:28:13.254Z,21.7
2017-04-22T09:29:14.319Z,21.7
2017-04-22T09:30:14.380Z,21.8
2017-04-22T09:31:13.749Z,21.8
2017-04-22T09:32:13.331Z,21.9
2017-04-22T09:33:13.448Z,21.9
2017-04-22T09:34:13.530Z,21.9
2017-04-22T09:35:13.601Z,22
2017-04-22T09:36:14.668Z,22
2017-04-22T09:37:13.888Z,22
2017-04-22T09:38:14.780Z,22
2017-04-22T09:39:13.839Z,22.1
2017-04-22T09:40:14.906Z,22.1
2017-04-22T09:41:14.881Z,22.1
2017-04-22T09:42:14.983Z,22.1
2017-04-22T09:43:14.238Z,22.2
2017-04-22T09:44:15.087Z,22.2
2017-04-22T09:45:14.001Z,22.2
2017-04-22T09:46:15.180Z,22.3
2017-04-22T09:47:14.230Z,22.3
2017-04-22T09:48:15.263Z,22.3
2017-04-22T09:49:14.499Z,22.3
2017-04-22T09:50:15.339Z,22.3
2017-04-22T09:51:14.279Z,22.3
2017-04-22T09:52:15.364Z,22.3
2017-04-22T09:53:15.483Z,22.3
2017-04-22T09:54:14.551Z,22.4
2017-04-22T09:55:15.808Z,22.4
2017-04-22T09:56:15.669Z,22.4
2017-04-22T09:57:14.619Z,22.4
2017-04-22T09:58:14.654Z,22.4
2017-04-22T09:59:15.822Z,22.4
2017-04-22T10:00:14.665Z,22.4
2017-04-22T10:01:16.203Z,22.4
2017-04-22T10:02:15.976Z,22.4
2017-04-22T10:03:14.944Z,22.4
2017-04-22T10:04:16.075Z,22.4
2017-04-22T10:05:15.047Z,22.4
2017-04-22T10:06:16.151Z,22.4
2017-04-22T10:07:16.518Z,22.4
2017-04-22T10:08:15.276Z,22.3
2017-04-22T10:09:15.200Z,22.3
2017-04-22T10:10:17.739Z,22.2
2017-04-22T10:11:15.265Z,22.2
2017-04-22T10:12:16.355Z,22.1
2017-04-22T10:13:16.626Z,22.1
2017-04-22T10:14:15.418Z,22.1
2017-04-22T10:15:15.349Z,22
2017-04-22T10:16:15.502Z,22
2017-04-22T10:17:16.452Z,22
2017-04-22T10:18:15.537Z,21.9
2017-04-22T10:19:15.767Z,21.9
2017-04-22T10:20:15.640Z,21.8
2017-04-22T10:21:15.682Z,21.8
2017-04-22T10:22:16.757Z,21.7
2017-04-22T10:23:16.844Z,21.7
2017-04-22T10:24:15.892Z,21.7
2017-04-22T10:25:17.191Z,21.7
2017-04-22T10:26:16.999Z,21.7
2017-04-22T10:27:17.005Z,21.7
2017-04-22T10:28:16.082Z,21.7
2017-04-22T10:29:17.162Z,21.7
2017-04-22T10:30:16.056Z,21.7
2017-04-22T10:31:17.552Z,21.6
2017-04-22T10:32:16.056Z,21.6
2017-04-22T10:33:17.228Z,21.5
2017-04-22T10:34:16.158Z,21.5
2017-04-22T10:35:16.232Z,21.5
2017-04-22T10:36:17.328Z,21.4
2017-04-22T10:37:16.547Z,21.4
2017-04-22T10:38:16.383Z,21.4
2017-04-22T10:39:16.612Z,21.3
2017-04-22T10:40:16.481Z,21.3
2017-04-22T10:41:17.596Z,21.3
2017-04-22T10:42:17.682Z,21.2
2017-04-22T10:43:17.908Z,21.2
2017-04-22T10:44:16.665Z,21.3
2017-04-22T10:45:17.718Z,21.4
2017-04-22T10:46:16.621Z,21.5
2017-04-22T10:47:17.814Z,21.5
2017-04-22T10:48:17.861Z,21.6
2017-04-22T10:49:17.100Z,21.7
2017-04-22T10:50:17.976Z,21.8
2017-04-22T10:51:16.931Z,21.8
2017-04-22T10:52:18.099Z,21.9
2017-04-22T10:53:18.226Z,22
2017-04-22T10:54:18.223Z,22
2017-04-22T10:55:17.599Z,22.1
2017-04-22T10:56:18.362Z,22.1
2017-04-22T10:57:17.316Z,22.2
2017-04-22T10:58:17.326Z,22.2
2017-04-22T10:59:17.320Z,22.2
2017-04-22T11:00:18.425Z,22.3
2017-04-22T11:01:17.723Z,22.3
2017-04-22T11:02:18.565Z,22.3
2017-04-22T11:03:17.570Z,22.4
2017-04-22T11:04:18.644Z,22.4
2017-04-22T11:05:18.677Z,22.4
2017-04-22T11:06:18.677Z,22.5
2017-04-22T11:07:19.016Z,22.5
2017-04-22T11:08:17.769Z,22.5
2017-04-22T11:09:18.922Z,22.6
2017-04-22T11:10:18.984Z,22.6
2017-04-22T11:11:18.034Z,22.6
2017-04-22T11:12:17.938Z,22.7
2017-04-22T11:13:18.244Z,22.7
2017-04-22T11:14:19.207Z,22.7
2017-04-22T11:15:18.147Z,22.8
2017-04-22T11:16:19.232Z,22.8
2017-04-22T11:17:18.273Z,22.7
2017-04-22T11:18:19.457Z,22.7
2017-04-22T11:19:18.597Z,22.7
2017-04-22T11:20:19.535Z,22.8
2017-04-22T11:21:19.535Z,22.8
2017-04-22T11:22:19.578Z,22.8
2017-04-22T11:23:18.629Z,22.8
2017-04-22T11:24:19.688Z,22.8
2017-04-22T11:25:19.974Z,22.8
2017-04-22T11:26:19.723Z,22.9
2017-04-22T11:27:19.802Z,22.9
2017-04-22T11:28:19.836Z,22.9
2017-04-22T11:29:18.852Z,22.9
2017-04-22T11:30:19.034Z,22.9
2017-04-22T11:31:20.331Z,23
2017-04-22T11:32:20.155Z,23
2017-04-22T11:33:19.189Z,23
2017-04-22T11:34:20.183Z,23
2017-04-22T11:35:19.230Z,23
2017-04-22T11:36:20.335Z,23
2017-04-22T11:37:20.590Z,23
2017-04-22T11:38:19.233Z,23
2017-04-22T11:39:20.390Z,23.1
2017-04-22T11:40:19.263Z,23.1
2017-04-22T11:41:19.320Z,23.1
2017-04-22T11:42:19.473Z,23.1
2017-04-22T11:43:19.690Z,23.1
2017-04-22T11:44:20.579Z,23.1
2017-04-22T11:45:19.509Z,23.2
2017-04-22T11:46:19.593Z,23.2
2017-04-22T11:47:19.699Z,23.2
2017-04-22T11:48:20.775Z,23.2
2017-04-22T11:49:20.012Z,23.2
2017-04-22T11:50:20.938Z,23.2
2017-04-22T11:51:19.958Z,23.2
2017-04-22T11:52:19.997Z,23.2
2017-04-22T11:53:21.154Z,23.2
2017-04-22T11:54:21.240Z,23.2
2017-04-22T11:55:20.493Z,23.2
2017-04-22T11:56:21.292Z,23.2
2017-04-22T11:57:20.410Z,23.2
2017-04-22T11:58:20.462Z,23.2
2017-04-22T11:59:20.551Z,23.2
2017-04-22T12:00:21.629Z,23.2
2017-04-22T12:01:20.889Z,23.2
2017-04-22T12:02:20.673Z,23.3
2017-04-22T12:03:21.744Z,23.3
2017-04-22T12:04:20.574Z,23.3
2017-04-22T12:05:21.780Z,23.3
2017-04-22T12:06:21.867Z,23.3
2017-04-22T12:07:21.095Z,23.3
2017-04-22T12:08:21.883Z,23.3
2017-04-22T12:09:21.829Z,23.3
2017-04-22T12:10:21.984Z,23.3
2017-04-22T12:11:21.981Z,23.3
2017-04-22T12:12:20.940Z,23.3
2017-04-22T12:13:21.384Z,23.3
2017-04-22T12:14:22.117Z,23.3
2017-04-22T12:15:21.126Z,23.3
2017-04-22T12:16:22.289Z,23.3
2017-04-22T12:17:26.323Z,23.3
2017-04-22T12:18:22.444Z,23.3
2017-04-22T12:19:21.741Z,23.4
2017-04-22T12:20:21.462Z,23.3
2017-04-22T12:21:21.459Z,23.4
2017-04-22T12:22:22.549Z,23.4
2017-04-22T12:23:21.593Z,23.4
2017-04-22T12:24:21.651Z,23.3
2017-04-22T12:25:22.041Z,23.4
2017-04-22T12:26:22.802Z,23.4
2017-04-22T12:27:21.761Z,23.4
2017-04-22T12:28:22.857Z,23.4
2017-04-22T12:29:22.929Z,23.4
2017-04-22T12:30:23.034Z,23.4
2017-04-22T12:31:23.367Z,23.4
2017-04-22T12:32:23.169Z,23.4
2017-04-22T12:33:23.147Z,23.4
2017-04-22T12:34:23.264Z,23.3
2017-04-22T12:35:22.278Z,23.3
2017-04-22T12:36:23.344Z,23.3
2017-04-22T12:37:23.759Z,23.3
2017-04-22T12:38:22.375Z,23.3
2017-04-22T12:39:23.356Z,23.3
2017-04-22T12:40:22.295Z,23.3
2017-04-22T12:41:22.326Z,23.3
2017-04-22T12:42:22.510Z,23.3
2017-04-22T12:43:22.783Z,23.3
2017-04-22T12:44:23.662Z,23.3
2017-04-22T12:45:22.604Z,23.3
2017-04-22T12:46:22.741Z,23.3
2017-04-22T12:47:22.676Z,23.2
2017-04-22T12:48:23.757Z,23.2
2017-04-22T12:49:23.071Z,23.2
2017-04-22T12:50:23.878Z,23.2
2017-04-22T12:51:22.979Z,23.2
2017-04-22T12:52:22.945Z,23.1
2017-04-22T12:53:23.014Z,23.1
2017-04-22T12:54:23.155Z,23.1
2017-04-22T12:55:23.449Z,23.1
2017-04-22T12:56:24.274Z,23
2017-04-22T12:57:23.301Z,22.8
2017-04-22T12:58:24.443Z,22.7
2017-04-22T12:59:23.353Z,22.6
2017-04-22T13:00:24.451Z,22.6
2017-04-22T13:01:23.764Z,22.6
2017-04-22T13:02:24.619Z,22.6
2017-04-22T13:03:23.592Z,22.7
2017-04-22T13:04:24.785Z,22.7
2017-04-22T13:05:23.761Z,22.7
2017-04-22T13:06:24.932Z,22.8
2017-04-22T13:07:24.163Z,22.8
2017-04-22T13:08:25.039Z,22.9
2017-04-22T13:09:24.064Z,22.9
2017-04-22T13:10:24.151Z,22.9
2017-04-22T13:11:24.130Z,22.7
2017-04-22T13:12:25.262Z,22.4
2017-04-22T13:13:24.727Z,22.1
2017-04-22T13:14:25.473Z,22
2017-04-22T13:15:24.423Z,21.9
2017-04-22T13:16:24.429Z,22
2017-04-22T13:17:24.457Z,22
2017-04-22T13:18:24.456Z,22.1
2017-04-22T13:19:25.362Z,22.1
2017-04-22T13:20:24.585Z,22.2
2017-04-22T13:21:24.563Z,22.3
2017-04-22T13:22:25.707Z,22.3